Time;durP1;ratioP1;P1;durP2;ratioP2;P2;SDS_P1;SDS_P2;PMS_P1;PMS_P2;Temp;Humidity;BMP_temperature;BMP_pressure;BME280_temperature;BME280_humidity;BME280_pressure;Samples;Min_cycle;Max_cycle;Signal;HPM_P1;HPM_P2
2022/11/13 00:01:16;;;;;;;43.23;18.82;;;;;;;3.72;88.12;100116.45;1772460;79;25423;-66
2022/11/13 00:03:43;;;;;;;53.70;23.38;;;;;;;3.70;88.38;100122.11;1772291;81;29490;-68
2022/11/13 00:06:12;;;;;;;74.45;29.82;;;;;;;3.69;88.38;100122.34;1772290;81;25422;-68
2022/11/13 00:08:38;;;;;;;39.23;19.17;;;;;;;3.72;88.34;100117.81;1772650;81;25576;-68
2022/11/13 00:11:12;;;;;;;38.73;20.65;;;;;;;3.72;88.23;100119.17;1772215;81;25470;-68
2022/11/13 00:13:38;;;;;;;42.95;21.55;;;;;;;3.74;88.39;100115.67;1772727;80;25392;-68
2022/11/13 00:16:13;;;;;;;37.95;20.40;;;;;;;3.82;88.18;100120.78;1772634;81;28022;-68
2022/11/13 00:18:41;;;;;;;42.45;19.25;;;;;;;3.94;88.24;100122.16;1772083;81;27063;-68
2022/11/13 00:21:18;;;;;;;52.38;25.97;;;;;;;3.98;87.81;100122.00;1772214;81;25723;-68
2022/11/13 00:23:45;;;;;;;41.92;18.85;;;;;;;3.95;87.89;100119.76;1772260;81;25429;-68
2022/11/13 00:26:15;;;;;;;43.10;19.95;;;;;;;3.84;88.35;100109.17;1772281;81;25426;-68
2022/11/13 00:28:42;;;;;;;44.03;21.57;;;;;;;3.79;89.08;100121.23;1772501;81;27415;-69
2022/11/13 00:31:11;;;;;;;56.73;24.37;;;;;;;3.80;88.82;100120.17;1772117;81;25518;-68
2022/11/13 00:33:37;;;;;;;65.03;30.77;;;;;;;3.86;88.66;100117.89;1772751;81;25503;-68
2022/11/13 00:36:12;;;;;;;51.40;24.20;;;;;;;3.91;88.54;100125.88;1772226;81;25671;-68
2022/11/13 00:38:38;;;;;;;65.62;29.95;;;;;;;3.92;88.62;100119.39;1772784;80;25640;-68
2022/11/13 00:41:05;;;;;;;55.20;24.85;;;;;;;3.92;88.28;100124.81;1772256;81;27983;-68
2022/11/13 00:43:31;;;;;;;48.13;23.32;;;;;;;3.95;88.38;100115.69;1772220;80;25470;-68
2022/11/13 00:45:58;;;;;;;58.78;27.70;;;;;;;4.00;88.25;100121.77;1772215;80;25691;-68
2022/11/13 00:48:24;;;;;;;49.08;21.87;;;;;;;4.08;88.24;100118.70;1772449;79;25624;-68
2022/11/13 00:50:52;;;;;;;49.60;22.90;;;;;;;4.14;88.21;100115.05;1772551;81;25615;-68
2022/11/13 00:53:18;;;;;;;47.75;22.58;;;;;;;4.03;87.77;100110.42;1772416;80;27480;-69
2022/11/13 00:55:45;;;;;;;42.50;22.90;;;;;;;4.00;88.19;100109.56;1772374;81;27147;-69
2022/11/13 00:58:13;;;;;;;48.05;22.87;;;;;;;3.98;87.87;100100.82;1772365;81;25684;-68
2022/11/13 01:00:44;;;;;;;47.80;22.25;;;;;;;3.97;88.03;100102.70;1772414;81;25706;-68
2022/11/13 01:03:11;;;;;;;43.50;21.15;;;;;;;3.99;88.20;100106.53;1772979;79;25636;-68
2022/11/13 01:05:41;;;;;;;61.40;29.02;;;;;;;3.90;88.55;100104.70;1772865;81;27343;-68
2022/11/13 01:08:10;;;;;;;71.25;29.75;;;;;;;3.90;88.72;100097.92;1772632;81;25845;-69
2022/11/13 01:10:41;;;;;;;46.37;22.48;;;;;;;3.94;88.55;100103.16;1772381;79;25663;-68
2022/11/13 01:13:08;;;;;;;32.00;16.95;;;;;;;3.88;88.88;100100.86;1772702;80;25431;-68
2022/11/13 01:15:34;;;;;;;50.55;24.15;;;;;;;3.82;88.85;100092.82;1772826;81;25438;-68
2022/11/13 01:18:00;;;;;;;42.00;22.10;;;;;;;3.82;89.20;100089.59;1772352;81;27474;-68
2022/11/13 01:20:26;;;;;;;50.75;24.37;;;;;;;3.87;88.66;100087.53;1772282;81;25600;-68
2022/11/13 01:22:53;;;;;;;49.93;23.22;;;;;;;3.92;88.72;100080.06;1772373;81;25498;-68
2022/11/13 01:25:19;;;;;;;38.90;19.27;;;;;;;3.91;88.46;100079.77;1772328;81;25578;-68
2022/11/13 01:27:45;;;;;;;36.93;19.92;;;;;;;3.88;89.02;100072.91;1772322;79;25668;-68
2022/11/13 01:30:12;;;;;;;31.40;15.70;;;;;;;3.81;88.51;100067.61;1772374;81;27469;-68
2022/11/13 01:32:38;;;;;;;33.98;16.90;;;;;;;3.76;89.13;100075.09;1772388;80;25695;-68
2022/11/13 01:35:06;;;;;;;24.57;12.88;;;;;;;3.67;89.87;100075.64;1772402;81;25445;-69
2022/11/13 01:37:32;;;;;;;36.60;18.67;;;;;;;3.56;90.39;100073.20;1772576;81;25486;-69
2022/11/13 01:39:58;;;;;;;39.18;19.00;;;;;;;3.47;91.06;100072.71;1772346;79;25462;-68
2022/11/13 01:42:25;;;;;;;43.00;22.13;;;;;;;3.42;91.05;100063.11;1772227;80;29568;-69
2022/11/13 01:44:56;;;;;;;49.20;22.32;;;;;;;3.39;91.09;100063.02;1772304;80;25475;-69
2022/11/13 01:47:23;;;;;;;38.30;18.82;;;;;;;3.38;90.84;100059.51;1772441;81;25671;-69
2022/11/13 01:49:56;;;;;;;40.98;20.50;;;;;;;3.36;91.00;100051.29;1772703;81;25647;-69
2022/11/13 01:52:28;;;;;;;43.00;19.42;;;;;;;3.36;90.78;100054.84;1772869;81;25683;-67
2022/11/13 01:55:06;;;;;;;46.80;21.97;;;;;;;3.37;91.14;100051.61;1772357;79;27334;-67
2022/11/13 01:57:33;;;;;;;49.03;24.47;;;;;;;3.38;90.98;100044.60;1772313;80;25627;-68
2022/11/13 02:00:05;;;;;;;38.58;17.95;;;;;;;3.42;90.85;100043.59;1772730;81;25439;-68
2022/11/13 02:02:31;;;;;;;22.85;12.28;;;;;;;3.48;91.11;100044.54;1772199;80;25680;-67
2022/11/13 02:04:57;;;;;;;48.00;22.40;;;;;;;3.45;91.06;100045.03;1772752;81;25498;-68
2022/11/13 02:07:25;;;;;;;39.73;20.17;;;;;;;3.44;90.78;100044.20;1772619;79;28114;-68
2022/11/13 02:09:55;;;;;;;40.58;20.27;;;;;;;3.49;90.59;100036.73;1772639;81;25709;-68
2022/11/13 02:12:32;;;;;;;44.42;22.37;;;;;;;3.51;90.31;100038.14;1772687;81;25438;-68
2022/11/13 02:15:00;;;;;;;39.18;20.17;;;;;;;3.59;90.73;100041.56;1772754;80;25644;-68
2022/11/13 02:17:34;;;;;;;42.62;20.65;;;;;;;3.66;90.51;100051.80;1772709;81;25411;-68
2022/11/13 02:20:03;;;;;;;33.18;15.90;;;;;;;3.68;90.06;100055.08;1772816;80;27455;-68
2022/11/13 02:22:50;;;;;;;43.05;21.65;;;;;;;3.67;89.76;100049.89;1772457;81;25419;-68
2022/11/13 02:25:18;;;;;;;41.10;21.42;;;;;;;3.65;90.12;100054.19;1731514;82;25705;-69
2022/11/13 02:27:48;;;;;;;41.92;21.27;;;;;;;3.69;90.15;100063.53;1731426;82;25608;-68
2022/11/13 02:30:19;;;;;;;46.50;22.83;;;;;;;3.74;89.89;100059.57;1731643;82;25460;-68
2022/11/13 02:32:47;;;;;;;;;;;;;;;3.79;89.87;100059.39;1734205;82;28070;-68
2022/11/13 02:35:18;;;;;;;39.75;20.12;;;;;;;3.82;89.66;100057.05;1731506;82;25734;-68
2022/11/13 02:37:44;;;;;;;39.85;20.77;;;;;;;3.84;89.69;100061.72;1731738;82;25718;-68
2022/11/13 02:40:12;;;;;;;52.53;26.10;;;;;;;3.75;89.41;100056.34;1731458;82;25699;-68
2022/11/13 02:42:38;;;;;;;49.38;24.25;;;;;;;3.75;89.97;100059.05;1731482;82;25674;-68
2022/11/13 02:45:06;;;;;;;45.67;21.95;;;;;;;3.76;90.15;100060.70;1731600;82;27423;-68
2022/11/13 02:47:33;;;;;;;49.50;23.70;;;;;;;3.72;89.85;100059.00;1731152;82;25784;-68
2022/11/13 02:50:00;;;;;;;45.73;22.25;;;;;;;3.74;90.11;100048.72;1731489;82;25758;-68
2022/11/13 02:52:26;;;;;;;39.18;18.52;;;;;;;3.81;90.15;100058.12;1731109;82;25734;-68
2022/11/13 02:54:53;;;;;;;42.60;22.48;;;;;;;3.73;89.86;100055.73;1731594;82;25679;-68
2022/11/13 02:57:19;;;;;;;50.43;24.05;;;;;;;3.63;89.48;100053.06;1731153;82;27375;-68
2022/11/13 02:59:45;;;;;;;48.20;23.27;;;;;;;3.63;89.84;100057.68;1731073;82;25718;-68
2022/11/13 03:02:12;;;;;;;56.48;27.30;;;;;;;3.64;89.87;100052.55;1769446;81;25675;-68
2022/11/13 03:04:38;;;;;;;48.50;24.70;;;;;;;3.74;90.09;100064.16;1772554;81;26221;-68
2022/11/13 03:07:04;;;;;;;51.88;26.35;;;;;;;3.82;89.75;100061.64;1772213;80;25426;-68
2022/11/13 03:09:31;;;;;;;50.45;25.23;;;;;;;3.85;89.55;100057.94;1772244;81;29578;-68
2022/11/13 03:11:57;;;;;;;43.25;23.20;;;;;;;3.88;89.55;100052.05;1772162;81;25603;-68
2022/11/13 03:14:23;;;;;;;46.58;22.85;;;;;;;3.85;89.09;100056.58;1772288;81;25415;-68
2022/11/13 03:16:50;;;;;;;43.85;21.73;;;;;;;3.82;88.92;100054.86;1772257;80;25470;-68
2022/11/13 03:19:16;;;;;;;44.85;21.77;;;;;;;3.80;88.98;100055.09;1772222;81;25462;-68
2022/11/13 03:21:42;;;;;;;42.10;22.17;;;;;;;3.70;88.93;100051.61;1772263;81;29614;-68
2022/11/13 03:24:08;;;;;;;48.80;24.45;;;;;;;3.68;89.08;100046.94;1772199;80;25402;-68
2022/11/13 03:26:35;;;;;;;44.13;23.70;;;;;;;3.67;89.31;100049.89;1772672;81;25454;-68
2022/11/13 03:29:01;;;;;;;38.02;20.30;;;;;;;3.74;89.52;100046.53;1772626;79;25914;-68
2022/11/13 03:31:28;;;;;;;41.08;20.75;;;;;;;3.79;89.41;100045.31;1772194;81;25424;-68
2022/11/13 03:33:54;;;;;;;33.20;17.45;;;;;;;3.80;88.92;100039.38;1772406;81;27307;-68
2022/11/13 03:36:21;;;;;;;41.42;21.10;;;;;;;3.70;88.65;100039.41;1772133;80;25472;-68
2022/11/13 03:38:47;;;;;;;42.58;21.62;;;;;;;3.68;88.83;100042.88;1772260;81;25628;-68
2022/11/13 03:41:14;;;;;;;41.02;22.20;;;;;;;3.70;88.96;100044.84;1772225;81;25612;-68
2022/11/13 03:43:41;;;;;;;43.87;22.82;;;;;;;3.70;88.68;100038.06;1772365;80;25579;-68
2022/11/13 03:46:07;;;;;;;43.25;22.05;;;;;;;3.60;88.83;100041.88;1772169;81;27523;-68
2022/11/13 03:48:34;;;;;;;44.08;22.02;;;;;;;3.57;88.97;100040.44;1772479;80;25256;-68
2022/11/13 03:51:01;;;;;;;44.15;23.35;;;;;;;3.57;88.82;100053.99;1772263;81;25670;-68
2022/11/13 03:53:27;;;;;;;38.30;20.10;;;;;;;3.62;89.37;100050.59;1772639;81;25495;-68
2022/11/13 03:55:54;;;;;;;37.70;18.90;;;;;;;3.71;89.40;100053.26;1772701;81;25481;-68
2022/11/13 03:58:20;;;;;;;24.40;13.08;;;;;;;3.62;88.67;100044.64;1772274;81;27349;-68
2022/11/13 04:00:48;;;;;;;37.13;19.32;;;;;;;3.53;88.92;100046.03;1772069;81;25712;-68
2022/11/13 04:03:14;;;;;;;33.50;19.65;;;;;;;3.41;89.21;100039.23;1772299;80;25482;-68
2022/11/13 04:05:42;;;;;;;40.48;20.85;;;;;;;3.41;89.45;100036.53;1772488;80;25457;-68
2022/11/13 04:08:09;;;;;;;40.35;21.12;;;;;;;3.41;89.69;100041.11;1772233;79;25597;-68
2022/11/13 04:10:36;;;;;;;26.97;13.88;;;;;;;3.45;89.81;100038.26;1772254;81;27434;-68
2022/11/13 04:13:02;;;;;;;40.65;19.77;;;;;;;3.33;89.89;100045.81;1772376;81;25706;-68
2022/11/13 04:15:29;;;;;;;39.88;19.27;;;;;;;3.26;90.22;100039.12;1772246;81;25441;-68
2022/11/13 04:17:56;;;;;;;34.25;17.30;;;;;;;3.28;90.46;100040.80;1772214;80;25698;-68
2022/11/13 04:20:23;;;;;;;33.25;16.50;;;;;;;3.24;90.76;100037.71;1772902;79;25375;-67
2022/11/13 04:22:50;;;;;;;35.50;17.15;;;;;;;3.28;90.95;100045.66;1772432;79;27440;-68
2022/11/13 04:25:17;;;;;;;37.80;18.55;;;;;;;3.34;90.95;100043.94;1772624;79;25826;-68
2022/11/13 04:27:44;;;;;;;38.92;18.92;;;;;;;3.39;90.87;100044.05;1772651;79;25506;-68
2022/11/13 04:30:12;;;;;;;33.08;17.12;;;;;;;3.45;90.86;100048.55;1772384;79;25468;-68
2022/11/13 04:32:39;;;;;;;28.00;13.55;;;;;;;3.45;90.76;100047.75;1772639;81;25577;-68
2022/11/13 04:35:07;;;;;;;33.55;16.10;;;;;;;3.42;90.65;100044.95;1772667;81;27296;-68
2022/11/13 04:37:33;;;;;;;33.73;16.85;;;;;;;3.37;90.88;100051.61;1772587;81;25695;-68
2022/11/13 04:40:00;;;;;;;36.90;17.95;;;;;;;3.38;91.25;100046.48;1772928;81;25610;-68
2022/11/13 04:45:11;;;;;;;37.58;18.52;;;;;;;3.50;91.16;100046.50;1772405;80;25470;-67
2022/11/13 04:47:37;;;;;;;36.70;17.60;;;;;;;3.59;91.01;100045.11;1772359;81;27459;-68
2022/11/13 04:50:05;;;;;;;37.90;18.40;;;;;;;3.62;90.61;100046.00;1772310;80;25617;-68
2022/11/13 04:52:32;;;;;;;35.80;18.37;;;;;;;3.68;91.03;100047.50;1772652;81;25516;-68
2022/11/13 04:54:58;;;;;;;35.40;15.98;;;;;;;3.71;90.73;100051.09;1772336;81;25419;-68
2022/11/13 04:57:24;;;;;;;37.23;19.02;;;;;;;3.64;90.54;100047.95;1772416;81;25461;-67
2022/11/13 04:59:51;;;;;;;34.92;17.23;;;;;;;3.58;90.68;100042.62;1772427;81;27430;-68
2022/11/13 05:02:18;;;;;;;45.48;20.35;;;;;;;3.56;90.98;100046.09;1772281;80;27118;-68
2022/11/13 05:04:44;;;;;;;38.73;18.05;;;;;;;3.55;91.42;100040.38;1772780;81;25528;-68
2022/11/13 05:07:10;;;;;;;38.40;18.82;;;;;;;3.55;90.95;100041.22;1772436;81;25518;-68
2022/11/13 05:09:37;;;;;;;40.95;19.05;;;;;;;3.60;91.10;100039.97;1772347;81;25616;-68
2022/11/13 05:12:06;;;;;;;40.98;19.37;;;;;;;3.66;90.94;100043.66;1772471;81;27516;-68
2022/11/13 05:14:35;;;;;;;39.38;18.82;;;;;;;3.68;90.91;100040.16;1772301;79;25439;-68
2022/11/13 05:17:01;;;;;;;34.38;17.12;;;;;;;3.74;90.95;100043.30;1737046;82;25552;-67
2022/11/13 05:19:28;;;;;;;33.02;16.17;;;;;;;3.80;90.86;100046.95;1737725;82;25462;-68
2022/11/13 05:21:54;;;;;;;32.25;14.58;;;;;;;3.81;90.83;100042.37;1737853;82;25405;-67
2022/11/13 05:24:21;;;;;;;32.20;15.50;;;;;;;3.77;90.52;100047.42;1737920;82;27402;-67
2022/11/13 05:26:47;;;;;;;35.13;15.88;;;;;;;3.70;90.24;100045.36;1737644;82;25667;-68
2022/11/13 05:29:14;;;;;;;37.25;16.60;;;;;;;3.71;90.83;100050.55;1737765;82;25444;-68
2022/11/13 05:31:40;;;;;;;32.48;15.65;;;;;;;3.70;90.82;100048.91;1737730;82;25476;-68
2022/11/13 05:34:07;;;;;;;34.35;16.52;;;;;;;3.69;90.87;100045.91;1737775;82;25483;-68
2022/11/13 05:36:34;;;;;;;35.83;16.70;;;;;;;3.68;91.00;100046.14;1737732;82;27475;-68
2022/11/13 05:39:00;;;;;;;35.83;17.52;;;;;;;3.70;91.04;100046.71;1737736;82;25985;-68
2022/11/13 05:41:27;;;;;;;23.77;12.45;;;;;;;3.66;91.16;100038.23;1737853;82;25464;-68
2022/11/13 05:43:53;;;;;;;29.63;14.23;;;;;;;3.68;91.45;100042.08;1741184;82;25599;-68
2022/11/13 05:46:28;;;;;;;29.35;15.48;;;;;;;3.62;91.00;100046.52;1748866;82;25416;-68
2022/11/13 05:48:58;;;;;;;31.82;15.30;;;;;;;3.59;91.62;100042.40;1748893;81;27394;-68
2022/11/13 05:51:29;;;;;;;35.43;16.97;;;;;;;3.58;91.38;100043.47;1749277;82;25917;-68
2022/11/13 05:53:56;;;;;;;33.40;15.88;;;;;;;3.58;91.66;100034.50;1748551;82;25661;-68
2022/11/13 05:56:30;;;;;;;36.30;16.95;;;;;;;3.60;91.40;100039.97;1748782;82;25690;-68
2022/11/13 05:58:58;;;;;;;34.40;16.10;;;;;;;3.63;91.39;100044.13;1749212;81;25476;-68
2022/11/13 06:01:32;;;;;;;35.43;15.88;;;;;;;3.67;91.24;100047.17;1748901;82;28306;-68
2022/11/13 06:04:00;;;;;;;35.70;16.77;;;;;;;3.64;91.25;100042.53;1749091;81;25417;-68
2022/11/13 06:06:29;;;;;;;34.70;16.80;;;;;;;3.72;91.43;100044.61;1749249;82;25412;-68
2022/11/13 06:08:58;;;;;;;32.08;16.20;;;;;;;3.71;91.22;100038.34;1749253;81;25644;-68
2022/11/13 06:11:28;;;;;;;32.70;16.23;;;;;;;3.74;91.16;100037.88;1749182;81;25574;-67
2022/11/13 06:13:58;;;;;;;30.82;15.48;;;;;;;3.73;90.92;100030.81;1748793;82;27482;-68
2022/11/13 06:16:35;;;;;;;31.25;16.23;;;;;;;3.72;90.79;100031.05;1719616;82;25682;-68
2022/11/13 06:19:05;;;;;;;30.52;14.73;;;;;;;3.68;90.77;100032.03;1748915;81;25439;-68
2022/11/13 06:21:36;;;;;;;30.32;15.50;;;;;;;3.59;90.96;100031.55;1749467;82;26988;-67
2022/11/13 06:24:03;;;;;;;38.45;18.37;;;;;;;3.49;91.01;100026.69;1749409;82;25666;-68
2022/11/13 06:26:33;;;;;;;35.50;18.25;;;;;;;3.56;91.54;100029.83;1748818;81;27517;-68
2022/11/13 06:29:02;;;;;;;34.45;17.07;;;;;;;3.63;91.59;100030.02;1748859;81;26077;-68
2022/11/13 06:31:32;;;;;;;32.58;16.27;;;;;;;3.70;91.19;100027.73;1749111;82;25440;-68
2022/11/13 06:33:59;;;;;;;37.30;17.30;;;;;;;3.68;90.86;100032.03;1749184;82;25594;-68
2022/11/13 06:36:29;;;;;;;37.42;18.82;;;;;;;3.62;90.69;100029.73;1748848;82;25456;-68
2022/11/13 06:38:56;;;;;;;37.50;18.45;;;;;;;3.63;91.01;100025.95;1749303;82;27562;-68
2022/11/13 06:41:28;;;;;;;37.80;19.90;;;;;;;3.71;91.16;100023.98;1748991;81;25661;-68
2022/11/13 06:43:56;;;;;;;38.90;18.52;;;;;;;3.73;90.86;100025.39;1748782;81;25421;-68
2022/11/13 06:46:26;;;;;;;56.10;27.20;;;;;;;3.73;90.67;100020.48;1749175;82;25425;-68
2022/11/13 06:48:52;;;;;;;39.38;19.65;;;;;;;3.73;90.76;100019.97;1749181;82;25598;-68
2022/11/13 06:51:23;;;;;;;36.90;17.48;;;;;;;3.76;90.91;100023.56;1748940;81;27965;-68
2022/11/13 06:53:50;;;;;;;36.20;18.67;;;;;;;3.79;91.03;100014.65;1749330;82;25471;-68
2022/11/13 06:56:17;;;;;;;37.35;19.45;;;;;;;3.77;90.68;100017.59;1748775;82;25487;-68
2022/11/13 06:58:44;;;;;;;40.80;20.85;;;;;;;3.77;90.74;100013.52;1748786;81;25485;-68
2022/11/13 07:01:15;;;;;;;26.80;12.65;;;;;;;3.79;90.81;100010.06;1748856;82;25479;-68
2022/11/13 07:03:41;;;;;;;39.53;17.80;;;;;;;3.77;90.70;100006.75;1749295;81;27365;-68
2022/11/13 07:06:14;;;;;;;36.55;17.50;;;;;;;3.67;90.78;100010.06;1748740;82;25444;-68
2022/11/13 07:08:45;;;;;;;35.15;17.05;;;;;;;3.69;90.88;100016.08;1748816;81;25653;-68
2022/11/13 07:11:15;;;;;;;32.78;16.95;;;;;;;3.77;91.36;100017.59;1749313;81;25590;-68
2022/11/13 07:13:42;;;;;;;33.73;15.80;;;;;;;3.82;90.96;100021.80;1748816;82;25667;-68
2022/11/13 07:16:11;;;;;;;30.77;14.80;;;;;;;3.90;91.21;100016.55;1748681;82;27436;-68
2022/11/13 07:18:37;;;;;;;36.85;16.57;;;;;;;3.89;90.63;100013.00;1748726;81;25630;-68
2022/11/13 07:21:08;;;;;;;33.10;15.60;;;;;;;3.88;90.85;100011.88;1749209;81;25709;-68
2022/11/13 07:23:41;;;;;;;38.25;16.85;;;;;;;3.98;91.34;100008.08;1743690;81;25617;-69
2022/11/13 07:26:07;;;;;;;31.35;16.10;;;;;;;4.11;91.32;100010.23;1743274;82;25612;-69
2022/11/13 07:28:34;;;;;;;30.43;15.72;;;;;;;4.17;90.86;100004.41;1748925;81;27475;-68
2022/11/13 07:31:01;;;;;;;29.52;14.20;;;;;;;4.20;90.51;100006.64;1748981;82;25798;-68
2022/11/13 07:33:27;;;;;;;31.45;14.87;;;;;;;4.15;90.32;100000.57;1749132;81;25641;-68
2022/11/13 07:35:55;;;;;;;41.77;19.27;;;;;;;4.12;90.46;100001.85;1749152;82;25677;-68
2022/11/13 07:38:21;;;;;;;46.15;19.62;;;;;;;4.20;90.80;100002.58;1749096;81;25662;-68
2022/11/13 07:40:48;;;;;;;42.38;19.50;;;;;;;4.27;90.75;100010.85;1747321;81;27538;-68
2022/11/13 07:43:14;;;;;;;42.05;20.10;;;;;;;4.33;90.69;100011.81;1746426;81;25455;-68
2022/11/13 07:45:40;;;;;;;45.70;19.12;;;;;;;4.37;90.59;100018.92;1740338;82;25685;-68
2022/11/13 07:48:07;;;;;;;26.55;13.70;;;;;;;4.43;90.66;100014.45;1738032;82;25660;-68
2022/11/13 07:50:36;;;;;;;32.60;15.90;;;;;;;4.44;90.54;100013.37;1738179;82;25651;-68
2022/11/13 07:53:06;;;;;;;63.17;22.00;;;;;;;4.41;90.26;100017.41;1737905;82;27525;-69
2022/11/13 07:55:34;;;;;;;39.15;18.05;;;;;;;4.43;90.33;100016.62;1747356;81;25716;-68
2022/11/13 07:58:02;;;;;;;37.80;15.70;;;;;;;4.37;90.61;100016.21;1768737;81;25731;-68
2022/11/13 08:00:31;;;;;;;37.75;16.62;;;;;;;4.36;90.12;100014.05;1768674;81;25454;-68
2022/11/13 08:02:58;;;;;;;51.53;20.37;;;;;;;4.35;90.05;100015.09;1768612;81;25493;-69
2022/11/13 08:05:24;;;;;;;49.55;20.37;;;;;;;4.39;90.36;100020.36;1768592;81;27427;-68
2022/11/13 08:07:52;;;;;;;35.75;15.05;;;;;;;4.41;90.25;100022.00;1768612;81;25640;-68
2022/11/13 08:10:20;;;;;;;27.80;13.15;;;;;;;4.43;90.42;100018.52;1766802;81;25691;-69
2022/11/13 08:12:47;;;;;;;35.38;16.67;;;;;;;4.43;89.98;100015.26;1738194;82;25949;-68
2022/11/13 08:15:13;;;;;;;39.70;18.48;;;;;;;4.35;90.06;100016.45;1738123;82;25469;-69
2022/11/13 08:17:40;;;;;;;34.08;15.25;;;;;;;4.41;90.82;100022.00;1738170;82;26741;-69
2022/11/13 08:20:08;;;;;;;38.33;18.17;;;;;;;4.42;90.29;100021.77;1737998;82;25813;-68
2022/11/13 08:22:35;;;;;;;43.83;20.27;;;;;;;4.42;90.43;100026.35;1734760;80;25781;-68
2022/11/13 08:25:01;;;;;;;43.35;20.65;;;;;;;4.50;90.84;100015.98;1738177;82;25634;-68
2022/11/13 08:27:27;;;;;;;43.35;20.45;;;;;;;4.66;91.14;100016.27;1738223;82;25598;-68
2022/11/13 08:29:54;;;;;;;39.83;19.55;;;;;;;4.80;90.77;100020.89;1738215;82;27506;-68
2022/11/13 08:32:21;;;;;;;57.62;22.90;;;;;;;4.88;90.24;100023.77;1738075;82;25570;-68
2022/11/13 08:34:47;;;;;;;35.65;18.10;;;;;;;4.99;90.26;100020.71;1737818;82;25436;-68
2022/11/13 08:37:13;;;;;;;40.83;20.70;;;;;;;4.95;89.28;100019.00;1738111;82;25500;-68
2022/11/13 08:39:40;;;;;;;42.62;21.10;;;;;;;4.97;89.57;100030.46;1738338;82;25665;-68
2022/11/13 08:42:06;;;;;;;41.13;20.23;;;;;;;4.99;89.10;100025.62;1738128;82;27405;-68
2022/11/13 08:44:33;;;;;;;38.70;18.67;;;;;;;5.03;89.19;100027.30;1739700;82;25697;-69
2022/11/13 08:46:59;;;;;;;40.67;20.82;;;;;;;5.06;89.15;100030.09;1748796;82;25590;-68
2022/11/13 08:49:26;;;;;;;35.08;17.92;;;;;;;5.11;89.34;100028.28;1748344;82;25621;-68
2022/11/13 08:51:52;;;;;;;53.45;23.42;;;;;;;5.23;89.26;100026.03;1748505;82;25614;-69
2022/11/13 08:54:19;;;;;;;26.55;15.03;;;;;;;5.22;88.81;100023.86;1748302;82;27355;-68
2022/11/13 08:56:48;;;;;;;38.30;17.73;;;;;;;5.19;88.21;100026.23;1748585;81;25501;-68
2022/11/13 08:59:14;;;;;;;41.28;18.60;;;;;;;5.17;88.25;100023.76;1748975;82;25666;-68
2022/11/13 09:01:41;;;;;;;35.55;16.25;;;;;;;5.26;88.88;100023.66;1748372;82;25484;-68
2022/11/13 09:04:07;;;;;;;38.05;18.07;;;;;;;5.35;88.65;100027.31;1748356;82;25440;-69
2022/11/13 09:06:34;;;;;;;32.65;14.35;;;;;;;5.35;88.97;100019.16;1748285;82;27421;-68
2022/11/13 09:09:00;;;;;;;42.93;20.10;;;;;;;5.47;88.90;100021.84;1748248;82;25714;-68
2022/11/13 09:11:27;;;;;;;48.85;21.60;;;;;;;5.51;88.55;100022.45;1748296;82;25421;-68
2022/11/13 09:13:54;;;;;;;38.42;18.17;;;;;;;5.53;87.98;100020.86;1748278;82;25614;-68
2022/11/13 09:16:21;;;;;;;47.08;22.77;;;;;;;5.57;88.39;100020.64;1748627;82;25720;-68
2022/11/13 09:18:51;;;;;;;43.52;20.43;;;;;;;5.62;88.51;100030.23;1748587;82;27427;-68
2022/11/13 09:21:18;;;;;;;40.25;19.77;;;;;;;5.74;88.21;100030.70;1748419;82;30442;-68
2022/11/13 09:23:44;;;;;;;39.45;17.67;;;;;;;5.79;87.50;100028.07;1745992;80;25677;-69
2022/11/13 09:26:11;;;;;;;41.10;19.55;;;;;;;5.80;87.08;100022.07;1747341;82;26304;-68
2022/11/13 09:28:37;;;;;;;45.90;21.48;;;;;;;5.84;87.11;100024.61;1748393;82;25436;-69
2022/11/13 09:31:05;;;;;;;48.20;23.77;;;;;;;5.92;87.35;100014.65;1748344;82;29515;-69
2022/11/13 09:33:32;;;;;;;52.03;22.85;;;;;;;6.03;87.47;100022.43;1748757;82;25393;-69
2022/11/13 09:35:59;;;;;;;56.40;25.25;;;;;;;6.19;87.48;100024.86;1748292;82;25424;-69
2022/11/13 09:38:28;;;;;;;49.65;22.48;;;;;;;6.41;87.74;100021.34;1748251;82;25420;-69
2022/11/13 09:41:05;;;;;;;48.63;20.17;;;;;;;6.62;87.46;100029.23;1748451;82;25614;-69
2022/11/13 09:43:58;;;;;;;43.08;21.73;;;;;;;6.83;86.31;100030.86;1745199;82;27440;-69
2022/11/13 09:46:39;;;;;;;48.02;21.27;;;;;;;6.93;85.85;100025.25;1747643;82;26836;-68
2022/11/13 09:49:20;;;;;;;;;;;;;;;7.00;84.76;100023.95;1751094;82;25436;-69
2022/11/13 09:51:57;;;;;;;39.27;17.45;;;;;;;6.97;84.92;100025.81;1747911;82;25607;-69
2022/11/13 09:54:24;;;;;;;37.23;18.37;;;;;;;7.06;85.18;100024.02;1748664;82;25650;-69
2022/11/13 09:57:21;;;;;;;61.50;29.40;;;;;;;7.04;84.38;100017.45;1748618;82;27419;-69
2022/11/13 09:59:53;;;;;;;42.95;20.50;;;;;;;7.13;85.18;100013.19;1748153;82;25428;-69
2022/11/13 10:03:09;;;;;;;37.05;19.25;;;;;;;7.33;84.51;100013.63;1748367;82;25654;-69
2022/11/13 10:06:02;;;;;;;37.93;20.57;;;;;;;7.55;83.63;100006.76;1748240;82;25633;-69
2022/11/13 10:08:48;;;;;;;33.08;16.90;;;;;;;8.08;83.25;100007.39;1748134;82;25677;-67
2022/11/13 10:11:37;;;;;;;40.28;20.70;;;;;;;8.25;80.13;100009.13;1748409;82;27425;-68
2022/11/13 10:14:16;;;;;;;39.10;19.12;;;;;;;8.19;80.84;100006.92;1748289;82;25693;-67
2022/11/13 10:16:48;;;;;;;44.83;22.70;;;;;;;8.19;80.69;100008.81;1769058;80;25417;-67
2022/11/13 10:19:23;;;;;;;42.90;20.35;;;;;;;8.18;80.65;99996.26;1754259;80;26036;-67
2022/11/13 10:22:00;;;;;;;47.25;24.37;;;;;;;8.29;81.19;99996.58;1748637;82;25464;-67
2022/11/13 10:24:37;;;;;;;45.73;22.80;;;;;;;8.59;81.47;100002.48;1717349;82;27526;-67
2022/11/13 10:27:14;;;;;;;65.60;31.93;;;;;;;8.71;80.41;99994.89;1748892;82;25936;-65
2022/11/13 10:29:42;;;;;;;45.40;22.32;;;;;;;8.78;80.15;99995.45;1748480;82;25584;-67
2022/11/13 10:32:27;;;;;;;48.60;24.92;;;;;;;8.94;78.92;99990.56;1748680;82;25472;-67
2022/11/13 10:35:02;;;;;;;40.67;22.70;;;;;;;9.26;78.57;99991.73;1747766;82;25598;-67
2022/11/13 10:37:49;;;;;;;38.67;21.65;;;;;;;9.90;79.68;99992.80;1743233;82;26980;-68
2022/11/13 10:40:28;;;;;;;42.53;22.95;;;;;;;10.61;76.73;99991.25;1748835;82;25563;-67
2022/11/13 10:43:21;;;;;;;46.02;24.52;;;;;;;11.34;75.35;99988.89;1747647;82;25436;-66
2022/11/13 10:46:04;;;;;;;38.83;21.60;;;;;;;12.00;74.53;99985.05;1747641;82;25439;-66
2022/11/13 10:48:36;;;;;;;40.63;23.67;;;;;;;12.10;71.69;99984.14;1696481;84;25721;-67
2022/11/13 10:51:07;;;;;;;42.30;24.10;;;;;;;12.41;73.62;99982.42;1696453;84;27431;-66
2022/11/13 10:53:41;;;;;;;41.75;24.37;;;;;;;13.33;69.92;99983.36;1692869;84;25545;-66
2022/11/13 10:56:30;;;;;;;41.42;25.20;;;;;;;13.56;69.93;99977.52;1696411;84;25831;-66
2022/11/13 10:59:16;;;;;;;43.42;27.13;;;;;;;13.56;69.93;99977.52;1696152;84;25736;-66
2022/11/13 11:01:45;;;;;;;40.85;24.55;;;;;;;13.77;69.05;99970.27;1696571;84;25736;-66
2022/11/13 11:04:26;;;;;;;39.15;24.55;;;;;;;13.99;68.11;99972.91;1696501;84;27425;-66
2022/11/13 11:06:54;;;;;;;38.98;22.40;;;;;;;14.25;68.26;99976.55;1696038;84;25676;-66
2022/11/13 11:09:28;;;;;;;39.53;25.23;;;;;;;14.65;67.03;99974.64;1696596;84;25444;-66
2022/11/13 11:12:22;;;;;;;35.08;21.77;;;;;;;14.86;66.38;99969.52;1696120;84;25668;-66
2022/11/13 11:14:59;;;;;;;41.73;25.92;;;;;;;15.12;63.77;99969.48;1692066;84;25902;-66
2022/11/13 11:17:43;;;;;;;39.80;25.48;;;;;;;15.22;62.17;99967.86;1696696;84;28323;-66
2022/11/13 11:20:59;;;;;;;39.88;25.90;;;;;;;15.42;63.69;99965.17;1695788;84;25757;-66
2022/11/13 11:24:01;;;;;;;43.90;28.35;;;;;;;15.84;63.47;99959.16;1696138;84;25692;-65
2022/11/13 11:26:50;;;;;;;39.58;25.95;;;;;;;16.26;62.41;99957.50;1746887;82;25693;-65
2022/11/13 11:29:43;;;;;;;38.45;26.02;;;;;;;16.68;60.33;99944.09;1748206;82;25428;-64
2022/11/13 11:32:33;;;;;;;36.95;23.90;;;;;;;16.80;59.88;99942.62;1748353;82;27332;-64